Padre Island — WDB4436 — position and weather

sailwx.info

Track history (hours):
 
Tides and Currents Weather Stations Pressure Air Temp Water Temp Dewpoint Dewpoint Depression Visibility Wind Speed Wind Dir Waves Ship Positions

Padre Island

Owner: Great Lakes Dredge & Dock Company, Oak Brook, IL. More information available from US FCC via Universal Licensing System and Coast Guard Vessel Documentation Center.

Last reported at 2016-Dec-06 13:13 UTC. Time now 2016-Dec-08 02:11 UTC.
Position N 38°43' W 075°04'.

Length 86 m; draft 19.6 m.

Type: Dredging. MMSI: 367525000.

Date/timePositionNaut miles runAvg speedWind from/ knotsBaromVisibWave heightAir tempDewpointWater temp
2016-Dec-06 13:13N 38°43' W 075°04'4 4.3
2016-Dec-06 12:17N 38°40' W 075°02'1 0.6
2016-Dec-06 11:28N 38°39' W 075°02'14 2.7
2016-Dec-06 06:15N 38°53' W 075°03'4 1.4
2016-Dec-06 03:22N 38°57' W 075°02'0 0.1
2016-Dec-06 02:28N 38°57' W 075°03'  
2016-Dec-03 14:17N 39°01' W 075°09'7 9.2
2016-Dec-03 13:33N 39°07' W 075°13'1010.5
2016-Dec-03 12:33N 39°16' W 075°20'1312.7
2016-Dec-03 11:33N 39°25' W 075°31'8 8.2
2016-Dec-03 10:33N 39°33' W 075°33'0 0.0
2016-Dec-03 09:33N 39°33' W 075°33'0 0.0
2016-Dec-03 08:33N 39°33' W 075°33'0 0.1
2016-Dec-03 07:33N 39°33' W 075°33'0 0.0
2016-Dec-03 06:33N 39°33' W 075°33'0 0.0
2016-Dec-03 05:33N 39°33' W 075°33'0 0.0
2016-Dec-03 04:33N 39°33' W 075°33'0 0.0
2016-Dec-03 03:33N 39°33' W 075°33'0 0.0
2016-Dec-03 02:33N 39°33' W 075°33'0 0.1
2016-Dec-03 01:33N 39°33' W 075°33'0 0.0
2016-Dec-03 00:33N 39°33' W 075°33'0 0.0
2016-Dec-02 23:33N 39°33' W 075°33'6 5.7
2016-Dec-02 22:33N 39°27' W 075°33'8 8.2
2016-Dec-02 21:33N 39°21' W 075°27'8 8.3
2016-Dec-02 20:33N 39°15' W 075°19'12 8.9
2016-Dec-02 19:12N 39°05' W 075°11'26 0.5
2016-Nov-30 15:29N 38°40' W 075°02'4 4.2
2016-Nov-30 14:33N 38°43' W 075°04'0 0.1
2016-Nov-30 13:30N 38°43' W 075°04'0 0.0
2016-Nov-30 12:33N 38°43' W 075°04'3 2.6
2016-Nov-30 11:12N 38°40' W 075°02'3 0.7
2016-Nov-30 06:15N 38°43' W 075°04'4 0.2
2016-Nov-29 12:24N 38°40' W 075°02'4 2.2
2016-Nov-29 10:30N 38°43' W 075°04'4 2.2
2016-Nov-29 08:30N 38°39' W 075°02'4 4.4
2016-Nov-29 07:31N 38°43' W 075°04'0 0.0
2016-Nov-29 04:05N 38°43' W 075°04'0 0.0
2016-Nov-29 03:33N 38°43' W 075°04'0 0.4
2016-Nov-29 02:31N 38°43' W 075°04'4 4.0
2016-Nov-29 01:33N 38°40' W 075°01'3 2.5
2016-Nov-29 00:21N 38°43' W 075°03'1 1.1
2016-Nov-28 23:33N 38°43' W 075°04'2 1.6
2016-Nov-28 22:33N 38°42' W 075°03'  
Track history (hours):
 
Tides and Currents Weather Stations Pressure Air Temp Water Temp Dewpoint Dewpoint Depression Visibility Wind Speed Wind Dir Waves Ship Positions

Padre Island

Owner: Great Lakes Dredge & Dock Company, Oak Brook, IL. More information available from US FCC via Universal Licensing System and Coast Guard Vessel Documentation Center.

Last reported at 2016-Dec-06 13:13 UTC. Time now 2016-Dec-08 02:11 UTC.
Position N 38°43' W 075°04'.

Length 86 m; draft 19.6 m.

Type: Dredging. MMSI: 367525000.

Date/timePositionNaut miles runAvg speedWind from/ knotsBaromVisibWave heightAir tempDewpointWater temp
2016-Dec-06 13:13N 38°43' W 075°04'4 4.3
2016-Dec-06 12:17N 38°40' W 075°02'1 0.6
2016-Dec-06 11:28N 38°39' W 075°02'14 2.7
2016-Dec-06 06:15N 38°53' W 075°03'4 1.4
2016-Dec-06 03:22N 38°57' W 075°02'0 0.1
2016-Dec-06 02:28N 38°57' W 075°03'  
2016-Dec-03 14:17N 39°01' W 075°09'7 9.2
2016-Dec-03 13:33N 39°07' W 075°13'1010.5
2016-Dec-03 12:33N 39°16' W 075°20'1312.7
2016-Dec-03 11:33N 39°25' W 075°31'8 8.2
2016-Dec-03 10:33N 39°33' W 075°33'0 0.0
2016-Dec-03 09:33N 39°33' W 075°33'0 0.0
2016-Dec-03 08:33N 39°33' W 075°33'0 0.1
2016-Dec-03 07:33N 39°33' W 075°33'0 0.0
2016-Dec-03 06:33N 39°33' W 075°33'0 0.0
2016-Dec-03 05:33N 39°33' W 075°33'0 0.0
2016-Dec-03 04:33N 39°33' W 075°33'0 0.0
2016-Dec-03 03:33N 39°33' W 075°33'0 0.0
2016-Dec-03 02:33N 39°33' W 075°33'0 0.1
2016-Dec-03 01:33N 39°33' W 075°33'0 0.0
2016-Dec-03 00:33N 39°33' W 075°33'0 0.0
2016-Dec-02 23:33N 39°33' W 075°33'6 5.7
2016-Dec-02 22:33N 39°27' W 075°33'8 8.2
2016-Dec-02 21:33N 39°21' W 075°27'8 8.3
2016-Dec-02 20:33N 39°15' W 075°19'12 8.9
2016-Dec-02 19:12N 39°05' W 075°11'26 0.5
2016-Nov-30 15:29N 38°40' W 075°02'4 4.2
2016-Nov-30 14:33N 38°43' W 075°04'0 0.1
2016-Nov-30 13:30N 38°43' W 075°04'0 0.0
2016-Nov-30 12:33N 38°43' W 075°04'3 2.6
2016-Nov-30 11:12N 38°40' W 075°02'3 0.7
2016-Nov-30 06:15N 38°43' W 075°04'4 0.2
2016-Nov-29 12:24N 38°40' W 075°02'4 2.2
2016-Nov-29 10:30N 38°43' W 075°04'4 2.2
2016-Nov-29 08:30N 38°39' W 075°02'4 4.4
2016-Nov-29 07:31N 38°43' W 075°04'0 0.0
2016-Nov-29 04:05N 38°43' W 075°04'0 0.0
2016-Nov-29 03:33N 38°43' W 075°04'0 0.4
2016-Nov-29 02:31N 38°43' W 075°04'4 4.0
2016-Nov-29 01:33N 38°40' W 075°01'3 2.5
2016-Nov-29 00:21N 38°43' W 075°03'1 1.1
2016-Nov-28 23:33N 38°43' W 075°04'2 1.6
2016-Nov-28 22:33N 38°42' W 075°03'  

Dump ship's entire track history